< Typhoon 196915 1969 Season Typhoon 196917 >
Typhoon 196916 (JUNE)
General InformationTrack Information on Google Maps || Disaster Info.ResourceGoogle EarthGE AnimationAtom FeedGeoJSON
Detalied Best Track (Time Zone = UTC)
Year Month Day Hour Lat. Long. Pressure (hPa) Wind (kt) Class Image Chart
1969 10 26 00 9.5 142.2 1008 0 2 -- Chart
1969 10 26 06 9.3 141.2 1008 0 2 -- Chart
1969 10 26 12 9.0 140.0 1006 0 2 -- Chart
1969 10 26 18 9.1 138.7 1006 0 2 -- Chart
1969 10 27 00 9.3 137.7 1006 0 2 -- Chart
1969 10 27 06 9.5 136.4 1004 0 2 -- Chart
1969 10 27 12 9.8 135.0 1004 0 2 -- Chart
1969 10 27 18 10.0 133.9 1004 0 2 -- Chart
1969 10 28 00 10.2 132.8 1004 0 2 -- Chart
1969 10 28 06 11.1 132.3 1003 0 2 -- Chart
1969 10 28 12 12.0 132.1 1002 0 2 -- Chart
1969 10 28 18 11.8 131.3 1000 0 2 -- Chart
1969 10 29 00 11.5 131.5 1000 0 2 -- Chart
1969 10 29 06 11.8 131.6 995 0 2 -- Chart
1969 10 29 12 11.6 131.4 990 0 2 -- Chart
1969 10 29 18 11.7 132.5 985 0 2 -- Chart
1969 10 30 00 12.3 133.1 980 0 9 -- Chart
1969 10 30 06 12.7 133.4 980 0 9 -- Chart
1969 10 30 12 12.9 133.9 980 0 9 -- Chart
1969 10 30 18 13.7 133.9 980 0 9 -- Chart
1969 10 31 00 14.3 133.7 975 0 9 -- Chart
1969 10 31 06 15.0 133.6 975 0 9 -- Chart
1969 10 31 12 15.5 133.5 970 0 9 -- Chart
1969 10 31 18 16.0 133.4 970 0 9 -- Chart
1969 11 1 00 16.6 133.4 965 0 9 -- Chart
1969 11 1 06 17.1 133.1 965 0 9 -- Chart
1969 11 1 12 18.0 132.8 965 0 9 -- Chart
1969 11 1 18 18.9 132.5 960 0 9 -- Chart
1969 11 2 00 19.5 132.1 950 0 9 -- Chart
1969 11 2 06 20.1 131.6 940 0 9 -- Chart
1969 11 2 12 20.6 131.4 940 0 9 -- Chart
1969 11 2 18 21.1 131.2 950 0 9 -- Chart
1969 11 3 00 21.4 131.0 960 0 9 -- Chart
1969 11 3 06 22.0 131.1 960 0 9 -- Chart
1969 11 3 12 22.5 131.3 960 0 9 -- Chart
1969 11 3 18 23.1 131.7 960 0 9 -- Chart
1969 11 4 00 23.9 132.5 965 0 9 -- Chart
1969 11 4 06 25.1 133.9 965 0 9 -- Chart
1969 11 4 12 26.4 135.4 965 0 9 -- Chart
1969 11 4 18 28.0 137.6 970 0 9 -- Chart
1969 11 5 00 29.7 140.7 975 0 9 -- Chart
1969 11 5 06 31.6 144.6 980 0 9 -- Chart
1969 11 5 12 34.5 150.5 980 0 9 -- Chart
1969 11 5 18 38.0 155.0 984 0 6 -- Chart
1969 11 6 00 42.4 160.0 978 0 6 -- Chart
1969 11 6 06 47.0 165.0 978 0 6 -- Chart
1969 11 6 12 49.8 169.7 972 0 6 -- Chart
1969 11 6 18 53.0 177.0 980 0 6 -- Chart
1969 11 7 00 56.0 183.0 980 0 6 -- Chart
Japan Meteorological Agency Best Track Data | Correction Date : 1991-07-16
< Typhoon 196915 1969 Season Typhoon 196917 >

Help